Time,TemperatureF,DewpointF,PressureIn,WindDirection,WindDirectionDegrees,WindSpeedMPH,WindSpeedGustMPH,Humidity,HourlyPrecipIn,Conditions,Clouds,dailyrainin,SolarRadiationWatts/m^2,SoftwareType,DateUTC
2013-01-03 00:02:00,9.0,5.0,30.12,NW,317,6.0,13.0,82,0.00,,,0.00,1.000000,,2013-01-03 06:02:00,
2013-01-03 00:33:00,8.0,4.0,30.12,NW,309,5.0,10.0,83,0.00,,,0.00,1.000000,,2013-01-03 06:33:00,
2013-01-03 00:42:00,8.0,4.0,30.12,NW,309,5.0,10.0,83,0.00,,,0.00,1.000000,,2013-01-03 06:42:00,
2013-01-03 00:53:00,8.0,4.0,30.12,NW,309,5.0,10.0,83,0.00,,,0.00,1.000000,,2013-01-03 06:53:00,
2013-01-03 01:02:00,8.0,4.0,30.12,NW,309,5.0,10.0,83,0.00,,,0.00,1.000000,,2013-01-03 07:02:00,
2013-01-03 01:33:00,8.0,4.0,30.14,NW,314,5.0,12.0,83,0.00,,,0.00,1.000000,,2013-01-03 07:33:00,
2013-01-03 01:43:00,8.0,4.0,30.14,NW,314,5.0,12.0,83,0.00,,,0.00,1.000000,,2013-01-03 07:43:00,
2013-01-03 01:53:00,8.0,4.0,30.14,NW,314,5.0,12.0,83,0.00,,,0.00,1.000000,,2013-01-03 07:53:00,
2013-01-03 02:02:00,8.0,4.0,30.14,NW,314,5.0,12.0,83,0.00,,,0.00,1.000000,,2013-01-03 08:02:00,
2013-01-03 02:33:00,7.0,3.0,30.14,NW,315,6.0,11.0,83,0.00,,,0.00,1.000000,,2013-01-03 08:33:00,
2013-01-03 02:43:00,7.0,3.0,30.14,NW,315,6.0,11.0,83,0.00,,,0.00,1.000000,,2013-01-03 08:43:00,
2013-01-03 02:53:00,7.0,3.0,30.14,NW,315,6.0,11.0,83,0.00,,,0.00,1.000000,,2013-01-03 08:53:00,
2013-01-03 03:02:00,7.0,3.0,30.14,NW,315,6.0,11.0,83,0.00,,,0.00,1.000000,,2013-01-03 09:02:00,
2013-01-03 03:34:00,6.0,2.0,30.17,NW,313,6.0,13.0,82,0.00,,,0.00,1.000000,,2013-01-03 09:34:00,
2013-01-03 03:43:00,6.0,2.0,30.17,NW,313,6.0,13.0,82,0.00,,,0.00,1.000000,,2013-01-03 09:43:00,
2013-01-03 03:53:00,6.0,2.0,30.17,NW,313,6.0,13.0,82,0.00,,,0.00,1.000000,,2013-01-03 09:53:00,
2013-01-03 04:02:00,6.0,2.0,30.17,NW,313,6.0,13.0,82,0.00,,,0.00,1.000000,,2013-01-03 10:02:00,
2013-01-03 04:33:00,5.0,0.0,30.18,NW,312,6.0,13.0,81,0.00,,,0.00,1.000000,,2013-01-03 10:33:00,
2013-01-03 04:43:00,5.0,0.0,30.18,NW,312,6.0,13.0,81,0.00,,,0.00,1.000000,,2013-01-03 10:43:00,
2013-01-03 04:53:00,5.0,0.0,30.18,NW,312,6.0,13.0,81,0.00,,,0.00,1.000000,,2013-01-03 10:53:00,
2013-01-03 05:02:00,5.0,0.0,30.18,NW,312,6.0,13.0,81,0.00,,,0.00,1.000000,,2013-01-03 11:02:00,
2013-01-03 05:33:00,3.0,-2.0,30.19,WNW,301,5.0,14.0,80,0.00,,,0.00,1.000000,,2013-01-03 11:33:00,
2013-01-03 05:43:00,3.0,-2.0,30.19,WNW,301,5.0,14.0,80,0.00,,,0.00,1.000000,,2013-01-03 11:43:00,
2013-01-03 05:53:00,3.0,-2.0,30.19,WNW,301,5.0,14.0,80,0.00,,,0.00,1.000000,,2013-01-03 11:53:00,
2013-01-03 06:02:00,3.0,-2.0,30.19,WNW,301,5.0,14.0,80,0.00,,,0.00,1.000000,,2013-01-03 12:02:00,
2013-01-03 06:33:00,1.0,-4.0,30.19,WNW,300,4.0,9.0,79,0.00,,,0.00,1.000000,,2013-01-03 12:33:00,
2013-01-03 06:43:00,1.0,-4.0,30.19,WNW,300,4.0,9.0,79,0.00,,,0.00,1.000000,,2013-01-03 12:43:00,
2013-01-03 06:53:00,1.0,-4.0,30.19,WNW,300,4.0,9.0,79,0.00,,,0.00,1.000000,,2013-01-03 12:53:00,
2013-01-03 07:02:00,1.0,-4.0,30.19,WNW,300,4.0,9.0,79,0.00,,,0.00,1.000000,,2013-01-03 13:02:00,
2013-01-03 07:33:00,0.0,-5.0,30.20,NW,312,4.0,8.0,78,0.00,,,0.00,1.000000,,2013-01-03 13:33:00,
2013-01-03 07:43:00,0.0,-5.0,30.20,NW,312,4.0,8.0,78,0.00,,,0.00,1.000000,,2013-01-03 13:43:00,
2013-01-03 07:53:00,0.0,-5.0,30.20,NW,312,4.0,8.0,78,0.00,,,0.00,1.000000,,2013-01-03 13:53:00,
2013-01-03 08:03:00,0.0,-5.0,30.20,NW,312,4.0,8.0,78,0.00,,,0.00,1.000000,,2013-01-03 14:03:00,
2013-01-03 08:33:00,-1.0,-6.0,30.19,WNW,302,3.0,8.0,77,0.00,,,0.00,1.000000,,2013-01-03 14:33:00,
2013-01-03 08:43:00,-1.0,-6.0,30.19,WNW,302,3.0,8.0,77,0.00,,,0.00,1.000000,,2013-01-03 14:43:00,
2013-01-03 08:53:00,-1.0,-6.0,30.19,WNW,302,3.0,8.0,77,0.00,,,0.00,1.000000,,2013-01-03 14:53:00,
2013-01-03 09:03:00,-1.0,-6.0,30.19,WNW,302,3.0,8.0,77,0.00,,,0.00,1.000000,,2013-01-03 15:03:00,
2013-01-03 09:34:00,0.0,-5.0,30.18,WNW,301,2.0,7.0,77,0.00,,,0.00,18.000000,,2013-01-03 15:34:00,
2013-01-03 09:43:00,0.0,-5.0,30.18,WNW,301,2.0,7.0,77,0.00,,,0.00,18.000000,,2013-01-03 15:43:00,
2013-01-03 09:53:00,0.0,-5.0,30.18,WNW,301,2.0,7.0,77,0.00,,,0.00,18.000000,,2013-01-03 15:53:00,
2013-01-03 10:03:00,0.0,-5.0,30.18,WNW,301,2.0,7.0,77,0.00,,,0.00,18.000000,,2013-01-03 16:03:00,
2013-01-03 10:34:00,11.0,5.0,30.18,SW,226,1.0,4.0,76,0.00,,,0.00,129.000000,,2013-01-03 16:34:00,
2013-01-03 10:43:00,11.0,5.0,30.18,SW,226,1.0,4.0,76,0.00,,,0.00,129.000000,,2013-01-03 16:43:00,
2013-01-03 10:53:00,11.0,5.0,30.18,SW,226,1.0,4.0,76,0.00,,,0.00,129.000000,,2013-01-03 16:53:00,
2013-01-03 11:03:00,11.0,5.0,30.18,SW,226,1.0,4.0,76,0.00,,,0.00,129.000000,,2013-01-03 17:03:00,
2013-01-03 11:33:00,13.0,6.0,30.16,SW,227,6.0,10.0,74,0.00,,,0.00,234.000000,,2013-01-03 17:33:00,
2013-01-03 11:43:00,13.0,6.0,30.16,SW,227,6.0,10.0,74,0.00,,,0.00,234.000000,,2013-01-03 17:43:00,
2013-01-03 11:53:00,13.0,6.0,30.16,SW,227,6.0,10.0,74,0.00,,,0.00,234.000000,,2013-01-03 17:53:00,
2013-01-03 12:03:00,13.0,6.0,30.16,SW,227,6.0,10.0,74,0.00,,,0.00,234.000000,,2013-01-03 18:03:00,
2013-01-03 12:33:00,15.0,7.0,30.15,WSW,246,5.0,11.0,70,0.00,,,0.00,279.000000,,2013-01-03 18:33:00,
2013-01-03 12:43:00,15.0,7.0,30.15,WSW,246,5.0,11.0,70,0.00,,,0.00,279.000000,,2013-01-03 18:43:00,
2013-01-03 12:53:00,15.0,7.0,30.15,WSW,246,5.0,11.0,70,0.00,,,0.00,279.000000,,2013-01-03 18:53:00,
2013-01-03 13:03:00,15.0,7.0,30.15,WSW,246,5.0,11.0,70,0.00,,,0.00,279.000000,,2013-01-03 19:03:00,
2013-01-03 13:56:00,16.0,9.0,30.12,WSW,249,6.0,12.0,75,0.00,,,0.00,270.000000,,2013-01-03 19:56:00,
2013-01-03 14:03:00,16.0,9.0,30.12,WSW,249,6.0,12.0,75,0.00,,,0.00,270.000000,,2013-01-03 20:03:00,
2013-01-03 14:33:00,17.0,10.0,30.09,WSW,241,7.0,14.0,74,0.00,,,0.00,204.000000,,2013-01-03 20:33:00,
2013-01-03 14:43:00,17.0,10.0,30.09,WSW,241,7.0,14.0,74,0.00,,,0.00,204.000000,,2013-01-03 20:43:00,
2013-01-03 14:53:00,17.0,10.0,30.09,WSW,241,7.0,14.0,74,0.00,,,0.00,204.000000,,2013-01-03 20:53:00,
2013-01-03 15:02:00,17.0,10.0,30.09,WSW,241,7.0,14.0,74,0.00,,,0.00,204.000000,,2013-01-03 21:02:00,
2013-01-03 15:38:00,17.0,11.0,30.08,SW,235,6.0,13.0,77,0.00,,,0.00,143.000000,,2013-01-03 21:38:00,
2013-01-03 15:50:00,17.0,11.0,30.08,SW,235,6.0,13.0,77,0.00,,,0.00,143.000000,,2013-01-03 21:50:00,
2013-01-03 16:03:00,17.0,11.0,30.08,SW,235,6.0,13.0,77,0.00,,,0.00,143.000000,,2013-01-03 22:03:00,
2013-01-03 16:33:00,17.0,12.0,30.06,SW,226,6.0,12.0,79,0.00,,,0.00,66.000000,,2013-01-03 22:33:00,
2013-01-03 16:43:00,17.0,12.0,30.06,SW,226,6.0,12.0,79,0.00,,,0.00,66.000000,,2013-01-03 22:43:00,
2013-01-03 16:52:00,17.0,12.0,30.06,SW,226,6.0,12.0,79,0.00,,,0.00,66.000000,,2013-01-03 22:52:00,
2013-01-03 17:02:00,17.0,12.0,30.06,SW,226,6.0,12.0,79,0.00,,,0.00,66.000000,,2013-01-03 23:02:00,
2013-01-03 17:33:00,15.0,11.0,30.03,SW,218,6.0,15.0,83,0.00,,,0.00,15.000000,,2013-01-03 23:33:00,
2013-01-03 17:43:00,15.0,11.0,30.03,SW,218,6.0,15.0,83,0.00,,,0.00,15.000000,,2013-01-03 23:43:00,
2013-01-03 17:53:00,15.0,11.0,30.03,SW,218,6.0,15.0,83,0.00,,,0.00,15.000000,,2013-01-03 23:53:00,
2013-01-03 18:03:00,15.0,11.0,30.03,SW,218,6.0,15.0,83,0.00,,,0.00,15.000000,,2013-01-04 00:03:00,
2013-01-03 18:33:00,16.0,12.0,30.01,SW,222,6.0,14.0,84,0.00,,,0.00,1.000000,,2013-01-04 00:33:00,
2013-01-03 18:42:00,16.0,12.0,30.01,SW,222,6.0,14.0,84,0.00,,,0.00,1.000000,,2013-01-04 00:42:00,
2013-01-03 18:53:00,16.0,12.0,30.01,SW,222,6.0,14.0,84,0.00,,,0.00,1.000000,,2013-01-04 00:53:00,
2013-01-03 19:02:00,16.0,12.0,30.01,SW,222,6.0,14.0,84,0.00,,,0.00,1.000000,,2013-01-04 01:02:00,
2013-01-03 19:33:00,17.0,13.0,29.98,SW,226,7.0,18.0,84,0.00,,,0.00,0.000000,,2013-01-04 01:33:00,
2013-01-03 19:42:00,17.0,13.0,29.98,SW,226,7.0,18.0,84,0.00,,,0.00,0.000000,,2013-01-04 01:42:00,
2013-01-03 19:52:00,17.0,13.0,29.98,SW,226,7.0,18.0,84,0.00,,,0.00,0.000000,,2013-01-04 01:52:00,
2013-01-03 20:02:00,17.0,13.0,29.98,SW,226,7.0,18.0,84,0.00,,,0.00,0.000000,,2013-01-04 02:02:00,
2013-01-03 20:33:00,17.0,13.0,29.96,SW,227,6.0,13.0,83,0.00,,,0.00,1.000000,,2013-01-04 02:33:00,
2013-01-03 20:42:00,17.0,13.0,29.96,SW,227,6.0,13.0,83,0.00,,,0.00,1.000000,,2013-01-04 02:42:00,
2013-01-03 20:53:00,17.0,13.0,29.96,SW,227,6.0,13.0,83,0.00,,,0.00,1.000000,,2013-01-04 02:53:00,
2013-01-03 21:02:00,17.0,13.0,29.96,SW,227,6.0,13.0,83,0.00,,,0.00,1.000000,,2013-01-04 03:02:00,
2013-01-03 21:33:00,18.0,13.0,29.94,SW,220,4.0,13.0,79,0.00,,,0.00,1.000000,,2013-01-04 03:33:00,
2013-01-03 21:43:00,18.0,13.0,29.94,SW,220,4.0,13.0,79,0.00,,,0.00,1.000000,,2013-01-04 03:43:00,
2013-01-03 21:53:00,18.0,13.0,29.94,SW,220,4.0,13.0,79,0.00,,,0.00,1.000000,,2013-01-04 03:53:00,
2013-01-03 22:02:00,18.0,13.0,29.94,SW,220,4.0,13.0,79,0.00,,,0.00,1.000000,,2013-01-04 04:02:00,
2013-01-03 22:32:00,20.0,13.0,29.92,WSW,238,6.0,15.0,73,0.00,,,0.00,1.000000,,2013-01-04 04:32:00,
2013-01-03 22:42:00,20.0,13.0,29.92,WSW,238,6.0,15.0,73,0.00,,,0.00,1.000000,,2013-01-04 04:42:00,
2013-01-03 22:52:00,20.0,13.0,29.92,WSW,238,6.0,15.0,73,0.00,,,0.00,1.000000,,2013-01-04 04:52:00,
2013-01-03 23:03:00,20.0,13.0,29.92,WSW,238,6.0,15.0,73,0.00,,,0.00,1.000000,,2013-01-04 05:03:00,
2013-01-03 23:33:00,20.0,12.0,29.92,West,261,5.0,14.0,72,0.00,,,0.00,1.000000,,2013-01-04 05:33:00,
2013-01-03 23:42:00,20.0,12.0,29.92,West,261,5.0,14.0,72,0.00,,,0.00,1.000000,,2013-01-04 05:42:00,
2013-01-03 23:53:00,20.0,12.0,29.92,West,261,5.0,14.0,72,0.00,,,0.00,1.000000,,2013-01-04 05:53:00,